Terminal Aerodrome Forecast
Issued by NWS Sioux Falls, SD

Home | Current Version | Previous Version | Graphics & Text | Print | Product List | Glossary On
Versions: 1 2 3 4 5 6 7 8 9 10 11 12 13 14 15 16
000
FTUS43 KFSD 191316 AAA
TAFFSD
TAF AMD
KFSD 191316Z 1913/2012 15010KT 1 1/2SM BR OVC003
      TEMPO 1913/1914 3/4SM BR
     FM191600 15014KT P6SM OVC006
     FM191700 15015G23KT P6SM OVC012
     FM192000 15019G27KT P6SM BKN150
     FM192200 15020G28KT P6SM SCT030
     FM200400 16015G23KT P6SM VCTS BKN080CB
     FM200600 32012KT P6SM OVC035
     FM200900 32006KT P6SM SCT130=

USA.gov is the U.S. government's official web portal to all federal, state and local government web resources and services.